Boston, Massachusetts
Traffic Map
Current Weather Conditions
Boston, Massachusetts
Few Clouds
Few Clouds
24°
Feels Like: 24°
Wind Chill: 24° Ceiling: Unl
Heat Index: 24° Visibility: 10mi
Dew Point: 22° Wind: 9mph
Humidity: 85% Direction: 200° (SSW)
Pressure: 29.73in Gusts: 0mph
Raw Report DataKBOS 030354Z 20008KT 10SM FEW250 24/22 A2973 RMK AO2 SLP068 T02440217
Traffic Incident Summary
Active as of:
Severity:
Category:
InformationThere was an issue retrieving the traffic information for this location. Please try a different location or try again shortly.
Advertisements
Track Severe Weather on mobile